Guntersville Observed Data For Previous 48 Hours

Caption
Day and Hour Reservoir Elevation (behind dam)* Tailwater Elevation (below dam)* Average Hourly Discharge*
1/15/2018 1 AM CST 593.88 553.53 24,212
1/15/2018 2 AM CST 593.93 553.13 19,394
1/15/2018 3 AM CST 593.95 553.03 19,110
1/15/2018 4 AM CST 593.94 552.95 18,976
1/15/2018 5 AM CST 593.95 552.99 18,978
1/15/2018 6 AM CST 593.80 554.29 25,750
1/15/2018 7 AM CST 593.73 555.38 44,806
1/15/2018 8 AM CST 593.65 555.68 44,957
1/15/2018 9 AM CST 593.54 555.87 44,831
1/15/2018 10 AM CST 593.63 554.24 24,445
1/15/2018 11 AM CST 593.55 554.09 23,909
1/15/2018 12 PM CST 593.54 553.97 24,062
1/15/2018 1 PM CST 593.61 553.88 24,037
1/15/2018 2 PM CST 593.71 553.40 19,367
1/15/2018 3 PM CST 593.70 553.34 19,207
1/15/2018 4 PM CST 593.73 553.25 19,267
1/15/2018 5 PM CST 593.72 553.19 19,112
1/15/2018 6 PM CST 593.72 553.23 19,214
1/15/2018 7 PM CST 593.70 553.68 24,385
1/15/2018 8 PM CST 593.74 553.74 24,599
1/15/2018 9 PM CST 593.75 553.85 24,180
1/15/2018 10 PM CST 593.74 553.81 24,112
1/15/2018 11 PM CST 593.69 553.80 24,117
1/16/2018 12 AM CST 593.76 553.80 24,014
1/16/2018 1 AM CST 593.77 553.82 23,979
1/16/2018 2 AM CST 593.76 553.89 24,042
1/16/2018 3 AM CST 593.80 553.93 24,288
1/16/2018 4 AM CST 593.77 553.99 24,102
1/16/2018 5 AM CST 593.79 553.95 24,196
1/16/2018 6 AM CST 593.71 555.10 26,167
1/16/2018 7 AM CST 593.63 555.84 44,508
1/16/2018 8 AM CST 593.56 556.09 44,440
1/16/2018 9 AM CST 593.57 556.29 44,408
1/16/2018 10 AM CST 593.56 556.43 44,367
1/16/2018 11 AM CST 593.68 554.85 24,665
1/16/2018 12 PM CST 593.69 554.60 24,029
1/16/2018 1 PM CST 593.69 554.40 23,912
1/16/2018 2 PM CST 593.74 554.27 24,060
1/16/2018 3 PM CST 593.75 554.16 24,125
1/16/2018 4 PM CST 593.75 554.08 23,987
1/16/2018 5 PM CST 593.57 554.89 25,470
1/16/2018 6 PM CST 593.60 555.88 44,491
1/16/2018 7 PM CST 593.56 556.11 44,351
1/16/2018 8 PM CST 593.55 556.34 44,195
1/16/2018 9 PM CST 593.52 556.42 44,231
1/16/2018 10 PM CST 593.52 556.47 44,248
1/16/2018 11 PM CST 593.56 556.54 44,236
1/17/2018 12 AM CST 593.70 554.92 24,667
1/17/2018 1 AM CST 593.73 554.64 24,063
1/17/2018 2 AM CST 593.72 554.41 24,042
1/17/2018 3 AM CST 593.74 554.23 24,080
1/17/2018 4 AM CST 593.72 554.13 23,976
1/17/2018 5 AM CST 593.53 554.91 25,212
1/17/2018 6 AM CST 593.61 555.85 44,465
1/17/2018 7 AM CST 593.60 556.06 44,507
1/17/2018 8 AM CST 593.63 556.26 44,533
1/17/2018 9 AM CST 593.65 556.39 44,624
1/17/2018 10 AM CST 593.64 556.49 44,524
1/17/2018 11 AM CST 593.85 555.78 43,452
1/17/2018 12 PM CST 593.77 554.87 24,049
1/17/2018 1 PM CST 593.78 554.59 24,096
1/17/2018 2 PM CST 593.81 554.31 24,170
1/17/2018 3 PM CST 593.82 554.14 24,335
1/17/2018 4 PM CST 593.85 554.04 24,003
1/17/2018 5 PM CST 593.71 554.82 25,230
1/17/2018 6 PM CST 593.79 555.74 44,354
1/17/2018 7 PM CST 593.78 555.98 44,459
1/17/2018 8 PM CST 593.81 556.15 44,523
1/17/2018 9 PM CST 593.81 556.27 44,406

Elevations are in feet above sea level. Discharges are in cubic feet per second and are reported at the end of the hour.